createdAt,value
2024-04-14T00:00:57.865Z,6.60
2024-04-14T00:03:44.197Z,6.70
2024-04-14T00:06:31.406Z,7.05
2024-04-14T00:09:17.498Z,6.85
2024-04-14T00:12:03.981Z,6.70
2024-04-14T00:14:50.891Z,5.70
2024-04-14T00:17:38.191Z,4.93
2024-04-14T00:20:26.109Z,6.00
2024-04-14T00:23:12.878Z,7.28
2024-04-14T00:25:58.992Z,7.00
2024-04-14T00:28:46.366Z,4.88
2024-04-14T00:31:34.067Z,6.93
2024-04-14T00:34:22.621Z,5.82
2024-04-14T00:37:08.842Z,6.78
2024-04-14T00:39:55.002Z,6.38
2024-04-14T00:42:41.835Z,6.93
2024-04-14T00:45:29.091Z,4.00
2024-04-14T00:48:15.634Z,5.45
2024-04-14T00:51:04.802Z,6.35
2024-04-14T00:53:51.629Z,3.00
2024-04-14T00:56:37.959Z,5.13
2024-04-14T00:59:24.038Z,5.57
2024-04-14T01:02:10.091Z,5.18
2024-04-14T01:04:56.749Z,5.85
2024-04-14T01:07:43.357Z,5.55
2024-04-14T01:10:31.085Z,5.97
2024-04-14T01:13:17.549Z,5.15
2024-04-14T01:16:04.542Z,4.68
2024-04-14T01:18:51.352Z,5.85
2024-04-14T01:21:38.121Z,6.25
2024-04-14T01:24:24.802Z,3.55
2024-04-14T01:27:14.069Z,4.55
2024-04-14T01:30:08.864Z,5.38
2024-04-14T01:32:55.319Z,5.18
2024-04-14T01:35:41.822Z,9.30
2024-04-14T01:38:28.310Z,6.93
2024-04-14T01:41:14.487Z,6.72
2024-04-14T01:44:01.086Z,4.25
2024-04-14T01:46:47.738Z,7.57
2024-04-14T01:49:33.852Z,7.30
2024-04-14T01:52:20.547Z,4.85
2024-04-14T01:55:07.040Z,7.72
2024-04-14T01:57:53.455Z,6.00
2024-04-14T02:00:40.102Z,7.57
2024-04-14T02:03:26.932Z,6.97
2024-04-14T02:06:13.330Z,5.95
2024-04-14T02:08:59.599Z,6.93
2024-04-14T02:11:46.046Z,4.78
2024-04-14T02:14:32.474Z,4.47
2024-04-14T02:17:19.250Z,4.97
2024-04-14T02:20:06.035Z,3.75
2024-04-14T02:22:52.971Z,5.82
2024-04-14T02:25:40.287Z,3.85
2024-04-14T02:28:27.197Z,3.47
2024-04-14T02:31:13.595Z,4.93
2024-04-14T02:33:59.923Z,5.68
2024-04-14T02:36:46.549Z,3.92
2024-04-14T02:39:34.061Z,7.32
2024-04-14T02:42:20.190Z,5.45
2024-04-14T02:45:06.637Z,5.45
2024-04-14T02:47:52.911Z,7.53
2024-04-14T02:50:39.597Z,6.30
2024-04-14T02:53:27.054Z,5.78
2024-04-14T02:56:13.228Z,6.43
2024-04-14T02:58:59.245Z,7.78
2024-04-14T03:01:46.871Z,8.60
2024-04-14T03:04:33.155Z,2.72
2024-04-14T03:07:19.529Z,5.00
2024-04-14T03:10:06.253Z,4.07
2024-04-14T03:12:52.794Z,6.55
2024-04-14T03:15:38.989Z,5.60
2024-04-14T03:18:25.591Z,47.35
2024-04-14T03:21:11.499Z,23.58
2024-04-14T03:23:57.723Z,8.90
2024-04-14T03:26:46.265Z,6.70
2024-04-14T03:29:32.267Z,6.80
2024-04-14T03:32:18.715Z,4.47
2024-04-14T03:35:06.226Z,4.25
2024-04-14T03:37:52.625Z,6.97
2024-04-14T03:40:38.615Z,6.10
2024-04-14T03:43:25.909Z,6.75
2024-04-14T03:46:12.012Z,3.17
2024-04-14T03:48:58.778Z,5.43
2024-04-14T03:51:45.348Z,7.10
2024-04-14T03:54:31.876Z,4.85
2024-04-14T03:57:18.098Z,5.60
2024-04-14T04:00:05.573Z,5.38
2024-04-14T04:03:00.967Z,9.90
2024-04-14T04:05:55.530Z,7.07
2024-04-14T04:08:41.561Z,8.15
2024-04-14T04:11:30.287Z,10.55
2024-04-14T04:14:16.611Z,6.28
2024-04-14T04:17:03.394Z,6.47
2024-04-14T04:19:49.679Z,5.93
2024-04-14T04:22:36.103Z,5.45
2024-04-14T04:25:22.185Z,7.13
2024-04-14T04:28:08.038Z,5.70
2024-04-14T04:30:55.136Z,9.93
2024-04-14T04:33:41.550Z,4.35
2024-04-14T04:36:27.772Z,8.98
2024-04-14T04:39:14.302Z,5.90
2024-04-14T04:42:00.550Z,10.07
2024-04-14T04:44:48.205Z,82.95
2024-04-14T04:47:34.746Z,6.82
2024-04-14T04:50:21.158Z,4.68
2024-04-14T04:53:07.373Z,6.10
2024-04-14T04:55:54.613Z,5.05
2024-04-14T04:58:40.896Z,6.90
2024-04-14T05:01:27.500Z,13.93
2024-04-14T05:04:13.942Z,11.23
2024-04-14T05:07:00.767Z,15.50
2024-04-14T05:09:47.002Z,9.57
2024-04-14T05:12:33.745Z,7.72
2024-04-14T05:15:19.767Z,6.40
2024-04-14T05:18:06.040Z,8.95
2024-04-14T05:20:52.650Z,7.90
2024-04-14T05:23:38.700Z,9.27
2024-04-14T05:26:24.624Z,10.98
2024-04-14T05:29:10.817Z,10.20
2024-04-14T05:31:56.723Z,11.50
2024-04-14T05:34:43.969Z,13.52
2024-04-14T05:37:30.291Z,9.27
2024-04-14T05:40:16.460Z,7.82
2024-04-14T05:43:02.600Z,9.07
2024-04-14T05:45:49.124Z,12.82
2024-04-14T05:48:35.357Z,10.00
2024-04-14T05:51:22.058Z,12.60
2024-04-14T05:54:08.117Z,11.10
2024-04-14T05:56:54.083Z,14.65
2024-04-14T05:59:40.273Z,8.77
2024-04-14T06:02:26.330Z,7.20
2024-04-14T06:05:12.921Z,7.50
2024-04-14T06:07:58.919Z,9.60
2024-04-14T06:10:44.829Z,3.30
2024-04-14T06:13:31.549Z,5.55
2024-04-14T06:16:17.908Z,8.50
2024-04-14T06:19:04.230Z,3.65
2024-04-14T06:21:50.843Z,6.82
2024-04-14T06:24:37.450Z,8.13
2024-04-14T06:27:23.674Z,7.38
2024-04-14T06:30:11.043Z,6.50
2024-04-14T06:32:57.097Z,4.00
2024-04-14T06:35:43.468Z,5.60
2024-04-14T06:38:31.409Z,6.72
2024-04-14T06:41:18.025Z,3.97
2024-04-14T06:44:04.164Z,9.80
2024-04-14T06:46:50.210Z,6.47
2024-04-14T06:49:36.873Z,8.95
2024-04-14T06:52:22.959Z,8.50
2024-04-14T06:55:12.918Z,8.35
2024-04-14T06:57:59.294Z,8.75
2024-04-14T07:00:46.148Z,10.02
2024-04-14T07:03:32.345Z,7.93
2024-04-14T07:06:19.075Z,9.70
2024-04-14T07:09:05.148Z,6.28
2024-04-14T07:11:51.339Z,8.00
2024-04-14T07:14:37.869Z,5.50
2024-04-14T07:17:24.078Z,7.20
2024-04-14T07:20:10.563Z,7.03
2024-04-14T07:22:57.452Z,4.85
2024-04-14T07:25:43.709Z,6.68
2024-04-14T07:28:29.922Z,9.85
2024-04-14T07:31:16.637Z,4.35
2024-04-14T07:34:04.861Z,9.20
2024-04-14T07:36:51.211Z,9.20
2024-04-14T07:39:37.907Z,9.27
2024-04-14T07:42:24.434Z,7.47
2024-04-14T07:45:12.134Z,6.72
2024-04-14T07:47:58.378Z,8.90
2024-04-14T07:50:45.888Z,7.18
2024-04-14T07:53:32.648Z,11.23
2024-04-14T07:56:19.052Z,6.63
2024-04-14T07:59:06.157Z,6.55
2024-04-14T08:01:52.450Z,5.10
2024-04-14T08:04:39.238Z,8.32
2024-04-14T08:07:25.750Z,6.25
2024-04-14T08:10:11.724Z,9.25
2024-04-14T08:12:58.483Z,10.95
2024-04-14T08:15:44.882Z,7.72
2024-04-14T08:18:30.850Z,7.72
2024-04-14T08:21:17.092Z,12.35
2024-04-14T08:24:03.954Z,10.68
2024-04-14T08:26:49.997Z,8.10
2024-04-14T08:29:36.075Z,8.05
2024-04-14T08:32:22.017Z,9.55
2024-04-14T08:35:08.152Z,6.05
2024-04-14T08:37:55.764Z,7.88
2024-04-14T08:40:42.031Z,7.50
2024-04-14T08:43:28.523Z,9.35
2024-04-14T08:46:17.613Z,4.20
2024-04-14T08:49:04.284Z,14.25
2024-04-14T08:51:51.148Z,7.35
2024-04-14T08:54:37.973Z,14.88
2024-04-14T08:57:28.258Z,6.38
2024-04-14T09:00:16.579Z,6.28
2024-04-14T09:03:03.501Z,7.40
2024-04-14T09:05:49.919Z,7.70
2024-04-14T09:08:35.826Z,4.97
2024-04-14T09:11:22.341Z,6.13
2024-04-14T09:14:08.587Z,5.32
2024-04-14T09:16:54.750Z,5.07
2024-04-14T09:19:44.359Z,4.65
2024-04-14T09:22:30.523Z,9.93
2024-04-14T09:25:19.729Z,11.13
2024-04-14T09:28:09.074Z,5.40
2024-04-14T09:30:55.238Z,10.30
2024-04-14T09:33:42.036Z,4.65
2024-04-14T09:36:28.823Z,8.23
2024-04-14T09:39:15.545Z,5.53
2024-04-14T09:42:02.283Z,5.38
2024-04-14T09:44:49.945Z,12.40
2024-04-14T09:47:38.356Z,7.25
2024-04-14T09:50:25.289Z,7.47
2024-04-14T09:53:12.208Z,6.60
2024-04-14T09:55:59.210Z,6.20
2024-04-14T09:58:45.560Z,7.43
2024-04-14T10:01:35.638Z,3.70
2024-04-14T10:04:22.201Z,7.55
2024-04-14T10:07:08.981Z,12.60
2024-04-14T10:09:57.363Z,8.32
2024-04-14T10:12:43.845Z,6.40
2024-04-14T10:15:30.587Z,6.47
2024-04-14T10:18:17.334Z,4.95
2024-04-14T10:21:04.782Z,3.58
2024-04-14T10:23:54.469Z,6.35
2024-04-14T10:26:41.066Z,5.13
2024-04-14T10:29:27.748Z,7.93
2024-04-14T10:32:14.599Z,6.05
2024-04-14T10:35:00.921Z,7.10
2024-04-14T10:37:55.179Z,5.20
2024-04-14T10:40:41.647Z,8.48
2024-04-14T10:43:28.192Z,5.32
2024-04-14T10:46:14.820Z,6.60
2024-04-14T10:49:01.604Z,5.38
2024-04-14T10:51:49.400Z,5.40
2024-04-14T10:54:39.992Z,7.10
2024-04-14T10:57:26.363Z,11.00
2024-04-14T11:00:13.090Z,13.02
2024-04-14T11:03:00.103Z,4.00
2024-04-14T11:05:46.573Z,7.10
2024-04-14T11:08:34.874Z,7.03
2024-04-14T11:11:21.176Z,6.43
2024-04-14T11:14:07.206Z,4.05
2024-04-14T11:16:53.379Z,6.10
2024-04-14T11:19:40.100Z,7.38
2024-04-14T11:22:26.174Z,7.10
2024-04-14T11:25:12.519Z,8.55
2024-04-14T11:28:01.724Z,5.18
2024-04-14T11:30:48.695Z,4.80
2024-04-14T11:33:35.686Z,5.38
2024-04-14T11:36:22.262Z,7.30
2024-04-14T11:39:08.546Z,4.60
2024-04-14T11:41:54.857Z,6.40
2024-04-14T11:44:40.988Z,6.30
2024-04-14T11:47:28.221Z,4.35
2024-04-14T11:50:14.816Z,10.18
2024-04-14T11:53:00.950Z,7.03
2024-04-14T11:55:47.457Z,10.55
2024-04-14T11:58:33.279Z,8.45
2024-04-14T12:01:19.914Z,6.15
2024-04-14T12:04:06.221Z,3.83
2024-04-14T12:06:52.748Z,2.90
2024-04-14T12:09:39.435Z,4.03
2024-04-14T12:12:25.439Z,5.78
2024-04-14T12:15:11.884Z,8.48
2024-04-14T12:17:58.789Z,7.30
2024-04-14T12:20:45.323Z,4.97
2024-04-14T12:23:31.495Z,7.38
2024-04-14T12:26:18.170Z,5.53
2024-04-14T12:29:04.286Z,8.25
2024-04-14T12:31:51.086Z,6.28
2024-04-14T12:34:37.302Z,7.13
2024-04-14T12:37:23.897Z,6.63
2024-04-14T12:40:11.379Z,8.88
2024-04-14T12:42:59.081Z,7.18
2024-04-14T12:45:49.751Z,6.53
2024-04-14T12:48:36.162Z,10.25
2024-04-14T12:51:22.484Z,4.55
2024-04-14T12:54:11.269Z,10.90
2024-04-14T12:56:57.967Z,5.45
2024-04-14T12:59:44.165Z,5.97
2024-04-14T13:02:30.569Z,3.78
2024-04-14T13:05:17.233Z,6.20
2024-04-14T13:08:03.320Z,9.43
2024-04-14T13:10:49.481Z,5.15
2024-04-14T13:13:35.558Z,5.70
2024-04-14T13:16:22.403Z,7.45
2024-04-14T13:19:08.899Z,6.72
2024-04-14T13:21:54.938Z,5.55
2024-04-14T13:24:41.074Z,8.57
2024-04-14T13:27:27.674Z,4.72
2024-04-14T13:30:13.956Z,4.18
2024-04-14T13:33:01.847Z,3.50
2024-04-14T13:35:48.468Z,10.32
2024-04-14T13:38:35.357Z,4.13
2024-04-14T13:41:21.543Z,5.05
2024-04-14T13:44:08.004Z,5.43
2024-04-14T13:46:54.129Z,7.80
2024-04-14T13:49:41.040Z,3.78
2024-04-14T13:52:29.737Z,3.83
2024-04-14T13:55:16.893Z,5.10
2024-04-14T13:58:04.260Z,5.60
2024-04-14T14:00:50.831Z,5.45
2024-04-14T14:03:37.223Z,5.47
2024-04-14T14:06:23.373Z,11.63
2024-04-14T14:09:12.756Z,8.60
2024-04-14T14:11:59.761Z,6.50
2024-04-14T14:14:46.067Z,6.82
2024-04-14T14:17:32.724Z,7.15
2024-04-14T14:20:18.845Z,6.88
2024-04-14T14:23:05.474Z,4.47
2024-04-14T14:25:51.873Z,8.43
2024-04-14T14:28:38.662Z,6.05
2024-04-14T14:31:25.079Z,6.57
2024-04-14T14:34:29.932Z,5.85
2024-04-14T14:37:16.715Z,5.70
2024-04-14T14:40:02.961Z,7.07
2024-04-14T14:42:49.587Z,5.68
2024-04-14T14:45:36.160Z,6.15
2024-04-14T14:48:22.896Z,7.22
2024-04-14T14:51:09.432Z,9.02
2024-04-14T14:53:56.287Z,5.13
2024-04-14T14:56:42.633Z,6.45
2024-04-14T14:59:31.771Z,7.43
2024-04-14T15:02:18.591Z,9.38
2024-04-14T15:05:05.645Z,6.53
2024-04-14T15:07:52.311Z,6.55
2024-04-14T15:10:45.161Z,7.15
2024-04-14T15:13:32.690Z,4.90
2024-04-14T15:16:19.045Z,6.97
2024-04-14T15:19:05.428Z,6.85
2024-04-14T15:21:51.998Z,7.05
2024-04-14T15:24:40.450Z,5.68
2024-04-14T15:27:26.640Z,7.53
2024-04-14T15:30:13.127Z,6.22
2024-04-14T15:32:59.530Z,4.78
2024-04-14T15:35:46.118Z,11.35
2024-04-14T15:38:35.562Z,5.07
2024-04-14T15:41:22.082Z,8.45
2024-04-14T15:44:15.090Z,8.52
2024-04-14T15:47:08.538Z,7.40
2024-04-14T15:49:55.246Z,2.85
2024-04-14T15:52:41.687Z,8.35
2024-04-14T15:55:29.710Z,7.50
2024-04-14T15:58:16.786Z,5.93
2024-04-14T16:01:04.068Z,7.20
2024-04-14T16:03:52.169Z,9.73
2024-04-14T16:06:38.754Z,4.88
2024-04-14T16:09:27.542Z,6.93
2024-04-14T16:12:14.882Z,5.90
2024-04-14T16:15:01.157Z,5.60
2024-04-14T16:17:47.793Z,11.40
2024-04-14T16:20:34.587Z,5.22
2024-04-14T16:23:21.015Z,7.47
2024-04-14T16:26:08.271Z,16.17
2024-04-14T16:28:55.459Z,15.10
2024-04-14T16:31:41.820Z,28.20
2024-04-14T16:34:28.046Z,12.45
2024-04-14T16:37:14.237Z,14.45
2024-04-14T16:40:01.554Z,18.73
2024-04-14T16:42:49.938Z,39.60
2024-04-14T16:45:36.616Z,18.80
2024-04-14T16:48:23.744Z,63.80
2024-04-14T16:51:10.920Z,41.75
2024-04-14T16:53:57.801Z,22.20
2024-04-14T16:56:43.992Z,71.82
2024-04-14T16:59:31.882Z,108.22
2024-04-14T17:02:18.466Z,52.58
2024-04-14T17:05:05.231Z,63.38
2024-04-14T17:07:52.401Z,36.33
2024-04-14T17:10:40.356Z,24.52
2024-04-14T17:13:26.582Z,22.35
2024-04-14T17:16:13.549Z,15.10
2024-04-14T17:18:59.987Z,13.55
2024-04-14T17:21:46.598Z,18.65
2024-04-14T17:24:33.424Z,14.55
2024-04-14T17:27:19.716Z,11.75
2024-04-14T17:30:06.405Z,17.15
2024-04-14T17:32:53.340Z,15.82
2024-04-14T17:35:39.794Z,13.18
2024-04-14T17:38:26.263Z,11.85
2024-04-14T17:41:12.528Z,12.10
2024-04-14T17:43:59.234Z,12.00
2024-04-14T17:46:47.800Z,16.30
2024-04-14T17:49:34.730Z,7.78
2024-04-14T17:52:21.401Z,14.52
2024-04-14T17:55:07.862Z,19.00
2024-04-14T17:57:54.450Z,13.55
2024-04-14T18:00:41.090Z,12.45
2024-04-14T18:03:28.035Z,14.60
2024-04-14T18:06:14.533Z,20.77
2024-04-14T18:09:01.772Z,12.30
2024-04-14T18:11:53.416Z,15.65
2024-04-14T18:14:39.832Z,11.65
2024-04-14T18:17:26.042Z,9.13
2024-04-14T18:20:13.033Z,11.73
2024-04-14T18:23:04.114Z,20.00
2024-04-14T18:25:50.364Z,10.48
2024-04-14T18:28:37.052Z,19.02
2024-04-14T18:31:23.817Z,10.95
2024-04-14T18:34:10.241Z,7.97
2024-04-14T18:36:57.187Z,7.15
2024-04-14T18:39:43.888Z,9.38
2024-04-14T18:42:30.123Z,10.57
2024-04-14T18:45:16.810Z,19.02
2024-04-14T18:48:03.243Z,13.00
2024-04-14T18:50:49.772Z,7.50
2024-04-14T18:53:36.766Z,11.98
2024-04-14T18:56:23.351Z,15.38
2024-04-14T18:59:09.730Z,10.27
2024-04-14T19:01:55.770Z,14.40
2024-04-14T19:04:42.370Z,11.55
2024-04-14T19:07:28.305Z,10.65
2024-04-14T19:10:15.801Z,8.68
2024-04-14T19:13:02.125Z,5.25
2024-04-14T19:15:48.824Z,6.68
2024-04-14T19:18:35.914Z,12.20
2024-04-14T19:21:22.770Z,11.25
2024-04-14T19:24:09.394Z,11.05
2024-04-14T19:26:57.018Z,8.02
2024-04-14T19:29:43.277Z,11.70
2024-04-14T19:32:29.595Z,12.75
2024-04-14T19:35:16.170Z,13.32
2024-04-14T19:38:02.506Z,12.82
2024-04-14T19:40:48.684Z,12.93
2024-04-14T19:43:35.376Z,17.48
2024-04-14T19:46:21.766Z,16.65
2024-04-14T19:49:09.892Z,7.45
2024-04-14T19:51:56.351Z,9.32
2024-04-14T19:54:42.757Z,7.63
2024-04-14T19:57:30.033Z,7.93
2024-04-14T20:00:16.621Z,9.07
2024-04-14T20:03:03.779Z,10.82
2024-04-14T20:05:49.834Z,12.40
2024-04-14T20:08:36.741Z,10.13
2024-04-14T20:11:23.379Z,9.73
2024-04-14T20:14:10.088Z,11.65
2024-04-14T20:16:56.367Z,11.73
2024-04-14T20:19:43.134Z,13.90
2024-04-14T20:22:29.277Z,9.25
2024-04-14T20:25:16.302Z,10.45
2024-04-14T20:28:03.255Z,7.97
2024-04-14T20:30:50.049Z,8.43
2024-04-14T20:33:36.513Z,13.35
2024-04-14T20:36:23.230Z,8.32
2024-04-14T20:39:15.002Z,11.02
2024-04-14T20:42:01.070Z,12.68
2024-04-14T20:44:47.782Z,8.85
2024-04-14T20:47:34.418Z,12.38
2024-04-14T20:50:20.906Z,13.65
2024-04-14T20:53:07.570Z,10.82
2024-04-14T20:55:56.749Z,11.77
2024-04-14T20:58:43.461Z,11.15
2024-04-14T21:01:29.957Z,12.20
2024-04-14T21:04:16.749Z,12.90
2024-04-14T21:07:05.506Z,11.77
2024-04-14T21:09:51.801Z,12.60
2024-04-14T21:12:38.891Z,9.10
2024-04-14T21:15:25.252Z,12.52
2024-04-14T21:18:11.459Z,10.70
2024-04-14T21:20:58.020Z,11.00
2024-04-14T21:23:44.206Z,11.98
2024-04-14T21:26:30.181Z,11.48
2024-04-14T21:29:18.379Z,12.05
2024-04-14T21:32:06.018Z,10.52
2024-04-14T21:34:52.443Z,11.55
2024-04-14T21:37:39.894Z,12.75
2024-04-14T21:40:26.376Z,12.43
2024-04-14T21:43:13.197Z,10.07
2024-04-14T21:46:01.545Z,13.35
2024-04-14T21:48:48.015Z,11.90
2024-04-14T21:51:34.488Z,10.70
2024-04-14T21:54:22.631Z,12.18
2024-04-14T21:57:08.826Z,8.60
2024-04-14T21:59:55.681Z,10.18
2024-04-14T22:02:41.614Z,13.25
2024-04-14T22:05:27.834Z,7.63
2024-04-14T22:08:14.003Z,11.80
2024-04-14T22:11:00.727Z,10.25
2024-04-14T22:13:47.287Z,9.88
2024-04-14T22:16:33.856Z,15.07
2024-04-14T22:19:20.491Z,8.82
2024-04-14T22:22:06.973Z,4.88
2024-04-14T22:24:54.272Z,8.00
2024-04-14T22:27:40.936Z,8.02
2024-04-14T22:30:27.727Z,8.20
2024-04-14T22:33:17.211Z,9.57
2024-04-14T22:36:03.896Z,8.70
2024-04-14T22:38:50.350Z,8.95
2024-04-14T22:41:36.719Z,5.47
2024-04-14T22:44:23.279Z,7.90
2024-04-14T22:47:09.956Z,9.75
2024-04-14T22:49:56.386Z,11.43
2024-04-14T22:52:42.422Z,9.18
2024-04-14T22:55:28.747Z,5.53
2024-04-14T22:58:15.332Z,6.88
2024-04-14T23:01:02.971Z,12.80
2024-04-14T23:03:49.386Z,8.77
2024-04-14T23:06:35.914Z,9.70
2024-04-14T23:09:22.188Z,10.40
2024-04-14T23:12:08.716Z,6.13
2024-04-14T23:14:55.099Z,7.88
2024-04-14T23:17:41.792Z,8.35
2024-04-14T23:20:29.239Z,5.85
2024-04-14T23:23:16.313Z,10.20
2024-04-14T23:26:02.400Z,7.97
2024-04-14T23:28:48.543Z,9.70
2024-04-14T23:31:35.768Z,8.88
2024-04-14T23:34:21.988Z,6.40
2024-04-14T23:37:08.612Z,8.70
2024-04-14T23:39:55.303Z,7.88
2024-04-14T23:42:41.767Z,10.75
2024-04-14T23:45:28.817Z,7.90
2024-04-14T23:48:14.942Z,9.13
2024-04-14T23:51:01.429Z,8.73
2024-04-14T23:53:47.435Z,10.57
2024-04-14T23:56:33.382Z,8.35
2024-04-14T23:59:19.450Z,6.43
